sensor_id;sensor_type;location;lat;lon;timestamp;pressure;altitude;pressure_sealevel;temperature;humidity
61039;BME280;46919;45.816;3.104;2023-05-11T00:01:23;97907.19;;;10.99;85.90
61039;BME280;46919;45.816;3.104;2023-05-11T00:03:49;97909.06;;;10.98;85.54
61039;BME280;46919;45.816;3.104;2023-05-11T00:06:14;97908.94;;;10.93;85.65
61039;BME280;46919;45.816;3.104;2023-05-11T00:08:40;97912.91;;;10.91;85.08
61039;BME280;46919;45.816;3.104;2023-05-11T00:11:08;97911.56;;;11.00;84.63
61039;BME280;46919;45.816;3.104;2023-05-11T00:13:34;97904.25;;;11.00;84.55
61039;BME280;46919;45.816;3.104;2023-05-11T00:15:59;97913.66;;;10.98;85.10
61039;BME280;46919;45.816;3.104;2023-05-11T00:18:25;97908.03;;;10.99;85.67
61039;BME280;46919;45.816;3.104;2023-05-11T00:20:50;97907.81;;;11.01;84.61
61039;BME280;46919;45.816;3.104;2023-05-11T00:23:16;97909.75;;;10.94;84.18
61039;BME280;46919;45.816;3.104;2023-05-11T00:25:41;97908.03;;;10.99;84.39
61039;BME280;46919;45.816;3.104;2023-05-11T00:28:07;97913.22;;;11.01;83.97
61039;BME280;46919;45.816;3.104;2023-05-11T00:30:32;97910.97;;;10.98;84.24
61039;BME280;46919;45.816;3.104;2023-05-11T00:32:58;97903.97;;;10.90;84.30
61039;BME280;46919;45.816;3.104;2023-05-11T00:35:23;97898.34;;;10.92;84.13
61039;BME280;46919;45.816;3.104;2023-05-11T00:37:48;97902.22;;;10.96;83.63
61039;BME280;46919;45.816;3.104;2023-05-11T00:40:14;97898.56;;;10.90;84.28
61039;BME280;46919;45.816;3.104;2023-05-11T00:42:40;97895.88;;;10.90;84.29
61039;BME280;46919;45.816;3.104;2023-05-11T00:45:05;97896.00;;;10.95;84.48
61039;BME280;46919;45.816;3.104;2023-05-11T00:47:31;97892.94;;;10.92;84.46
61039;BME280;46919;45.816;3.104;2023-05-11T00:49:57;97890.47;;;10.90;85.26
61039;BME280;46919;45.816;3.104;2023-05-11T00:52:23;97888.22;;;10.87;85.45
61039;BME280;46919;45.816;3.104;2023-05-11T00:54:49;97888.44;;;10.85;85.99
61039;BME280;46919;45.816;3.104;2023-05-11T00:57:15;97881.06;;;10.93;86.21
61039;BME280;46919;45.816;3.104;2023-05-11T00:59:41;97885.06;;;10.90;86.54
61039;BME280;46919;45.816;3.104;2023-05-11T01:02:07;97877.16;;;10.88;86.57
61039;BME280;46919;45.816;3.104;2023-05-11T01:04:32;97872.44;;;10.84;86.15
61039;BME280;46919;45.816;3.104;2023-05-11T01:12:58;97870.78;;;10.83;86.48
61039;BME280;46919;45.816;3.104;2023-05-11T01:15:37;97861.31;;;10.92;86.54
61039;BME280;46919;45.816;3.104;2023-05-11T01:20:55;97866.41;;;11.00;85.94
61039;BME280;46919;45.816;3.104;2023-05-11T01:29:43;97856.91;;;11.10;87.29
61039;BME280;46919;45.816;3.104;2023-05-11T01:32:25;97858.06;;;11.02;87.67
61039;BME280;46919;45.816;3.104;2023-05-11T01:35:06;97859.34;;;10.99;88.57
61039;BME280;46919;45.816;3.104;2023-05-11T01:37:33;97866.41;;;11.00;88.79
61039;BME280;46919;45.816;3.104;2023-05-11T01:40:04;97873.47;;;11.01;89.15
61039;BME280;46919;45.816;3.104;2023-05-11T01:42:40;97866.03;;;10.97;89.61
61039;BME280;46919;45.816;3.104;2023-05-11T01:45:10;97872.56;;;10.89;89.97
61039;BME280;46919;45.816;3.104;2023-05-11T01:47:37;97868.69;;;10.85;90.57
61039;BME280;46919;45.816;3.104;2023-05-11T01:50:06;97873.69;;;10.81;91.49
61039;BME280;46919;45.816;3.104;2023-05-11T01:52:33;97871.22;;;10.80;92.62
61039;BME280;46919;45.816;3.104;2023-05-11T01:55:01;97873.34;;;10.78;92.78
61039;BME280;46919;45.816;3.104;2023-05-11T01:57:28;97872.53;;;10.77;93.83
61039;BME280;46919;45.816;3.104;2023-05-11T01:59:55;97860.81;;;10.83;94.24
61039;BME280;46919;45.816;3.104;2023-05-11T02:02:21;97855.22;;;10.97;94.78
61039;BME280;46919;45.816;3.104;2023-05-11T02:04:49;97862.41;;;11.03;94.94
61039;BME280;46919;45.816;3.104;2023-05-11T02:07:15;97854.94;;;10.86;95.52
61039;BME280;46919;45.816;3.104;2023-05-11T02:09:43;97858.78;;;10.79;96.33
61039;BME280;46919;45.816;3.104;2023-05-11T02:12:10;97859.97;;;10.83;96.65
61039;BME280;46919;45.816;3.104;2023-05-11T02:14:37;97862.88;;;10.81;97.09
61039;BME280;46919;45.816;3.104;2023-05-11T02:17:05;97864.56;;;10.82;97.22
61039;BME280;46919;45.816;3.104;2023-05-11T02:19:33;97860.72;;;10.90;96.62
61039;BME280;46919;45.816;3.104;2023-05-11T02:22:01;97856.88;;;10.98;96.81
61039;BME280;46919;45.816;3.104;2023-05-11T02:24:29;97851.69;;;10.96;97.69
61039;BME280;46919;45.816;3.104;2023-05-11T02:26:55;97857.25;;;11.01;96.95
61039;BME280;46919;45.816;3.104;2023-05-11T02:29:21;97856.88;;;10.98;97.15
61039;BME280;46919;45.816;3.104;2023-05-11T02:31:48;97854.84;;;10.93;97.02
61039;BME280;46919;45.816;3.104;2023-05-11T02:34:23;97854.41;;;10.96;96.38
61039;BME280;46919;45.816;3.104;2023-05-11T02:36:52;97851.63;;;10.84;97.79
61039;BME280;46919;45.816;3.104;2023-05-11T02:39:20;97858.34;;;10.82;98.25
61039;BME280;46919;45.816;3.104;2023-05-11T02:41:51;97859.97;;;10.83;98.60
61039;BME280;46919;45.816;3.104;2023-05-11T02:44:20;97855.00;;;10.80;99.07
61039;BME280;46919;45.816;3.104;2023-05-11T02:46:47;97848.47;;;10.87;98.92
61039;BME280;46919;45.816;3.104;2023-05-11T02:49:14;97847.78;;;10.92;99.00
61039;BME280;46919;45.816;3.104;2023-05-11T02:51:43;97851.47;;;10.98;98.87
61039;BME280;46919;45.816;3.104;2023-05-11T02:54:11;97851.69;;;10.96;99.59
61039;BME280;46919;45.816;3.104;2023-05-11T02:56:37;97854.78;;;10.81;99.93
61039;BME280;46919;45.816;3.104;2023-05-11T02:59:03;97848.88;;;10.73;100.00
61039;BME280;46919;45.816;3.104;2023-05-11T03:01:29;97844.28;;;10.73;100.00
61039;BME280;46919;45.816;3.104;2023-05-11T03:03:55;97849.91;;;10.72;100.00
61039;BME280;46919;45.816;3.104;2023-05-11T03:06:20;97841.22;;;10.69;100.00
61039;BME280;46919;45.816;3.104;2023-05-11T03:08:46;97835.50;;;10.78;100.00
61039;BME280;46919;45.816;3.104;2023-05-11T03:11:12;97831.28;;;10.82;100.00
61039;BME280;46919;45.816;3.104;2023-05-11T03:13:41;97835.50;;;10.78;100.00
61039;BME280;46919;45.816;3.104;2023-05-11T03:16:08;97847.66;;;10.68;100.00
61039;BME280;46919;45.816;3.104;2023-05-11T03:18:35;97839.78;;;10.67;100.00
61039;BME280;46919;45.816;3.104;2023-05-11T03:21:01;97831.91;;;10.65;100.00
61039;BME280;46919;45.816;3.104;2023-05-11T03:23:28;97831.44;;;10.68;100.00
61039;BME280;46919;45.816;3.104;2023-05-11T03:25:54;97829.81;;;10.67;100.00
61039;BME280;46919;45.816;3.104;2023-05-11T03:28:21;97827.34;;;10.66;100.00
61039;BME280;46919;45.816;3.104;2023-05-11T03:30:48;97828.00;;;10.61;100.00
61039;BME280;46919;45.816;3.104;2023-05-11T03:33:15;97821.75;;;10.61;100.00
61039;BME280;46919;45.816;3.104;2023-05-11T03:35:42;97818.69;;;10.57;100.00
61039;BME280;46919;45.816;3.104;2023-05-11T03:38:10;97826.81;;;10.57;100.00
61039;BME280;46919;45.816;3.104;2023-05-11T03:40:37;97823.66;;;10.60;100.00
61039;BME280;46919;45.816;3.104;2023-05-11T03:43:06;97829.38;;;10.52;100.00
61039;BME280;46919;45.816;3.104;2023-05-11T03:45:33;97831.25;;;10.51;100.00
61039;BME280;46919;45.816;3.104;2023-05-11T03:48:00;97822.44;;;10.56;100.00
61039;BME280;46919;45.816;3.104;2023-05-11T03:50:27;97818.09;;;10.55;100.00
61039;BME280;46919;45.816;3.104;2023-05-11T03:52:54;97816.44;;;10.54;100.00
61039;BME280;46919;45.816;3.104;2023-05-11T03:55:20;97814.66;;;10.48;100.00
61039;BME280;46919;45.816;3.104;2023-05-11T03:57:45;97815.25;;;10.50;100.00
61039;BME280;46919;45.816;3.104;2023-05-11T04:00:12;97810.91;;;10.49;100.00
61039;BME280;46919;45.816;3.104;2023-05-11T04:02:37;97812.25;;;10.40;100.00
61039;BME280;46919;45.816;3.104;2023-05-11T04:05:10;97814.81;;;10.35;100.00
61039;BME280;46919;45.816;3.104;2023-05-11T04:07:36;97810.44;;;10.33;100.00
61039;BME280;46919;45.816;3.104;2023-05-11T04:10:03;97811.75;;;10.24;100.00
61039;BME280;46919;45.816;3.104;2023-05-11T04:12:29;97811.63;;;10.19;100.00
61039;BME280;46919;45.816;3.104;2023-05-11T04:14:54;97808.69;;;10.21;100.00
61039;BME280;46919;45.816;3.104;2023-05-11T04:17:20;97809.00;;;10.31;100.00
61039;BME280;46919;45.816;3.104;2023-05-11T04:19:45;97804.16;;;10.40;100.00
61039;BME280;46919;45.816;3.104;2023-05-11T04:22:10;97812.25;;;10.40;100.00
61039;BME280;46919;45.816;3.104;2023-05-11T04:24:37;97811.31;;;10.27;100.00
61039;BME280;46919;45.816;3.104;2023-05-11T04:27:02;97812.84;;;10.23;100.00
61039;BME280;46919;45.816;3.104;2023-05-11T04:29:28;97810.28;;;10.28;100.00
61039;BME280;46919;45.816;3.104;2023-05-11T04:31:53;97811.16;;;10.22;100.00
61039;BME280;46919;45.816;3.104;2023-05-11T04:34:19;97809.50;;;10.21;100.00
61039;BME280;46919;45.816;3.104;2023-05-11T04:36:48;97810.34;;;10.22;100.00
61039;BME280;46919;45.816;3.104;2023-05-11T04:39:15;97816.28;;;10.12;100.00
61039;BME280;46919;45.816;3.104;2023-05-11T04:41:42;97823.91;;;9.96;100.00
61039;BME280;46919;45.816;3.104;2023-05-11T04:44:07;97812.09;;;9.91;100.00
61039;BME280;46919;45.816;3.104;2023-05-11T04:46:33;97818.94;;;9.93;100.00
61039;BME280;46919;45.816;3.104;2023-05-11T04:48:58;97818.34;;;9.91;100.00
61039;BME280;46919;45.816;3.104;2023-05-11T04:51:24;97815.44;;;9.93;100.00
61039;BME280;46919;45.816;3.104;2023-05-11T04:53:49;97815.22;;;9.94;100.00
61039;BME280;46919;45.816;3.104;2023-05-11T04:56:15;97821.66;;;9.93;100.00
61039;BME280;46919;45.816;3.104;2023-05-11T04:58:40;97827.09;;;9.87;100.00
61039;BME280;46919;45.816;3.104;2023-05-11T05:01:05;97824.44;;;9.80;100.00
61039;BME280;46919;45.816;3.104;2023-05-11T05:03:31;97819.97;;;9.74;100.00
61039;BME280;46919;45.816;3.104;2023-05-11T05:05:56;97826.88;;;9.88;100.00
61039;BME280;46919;45.816;3.104;2023-05-11T05:08:21;97821.78;;;9.98;100.00
61039;BME280;46919;45.816;3.104;2023-05-11T05:10:47;97827.63;;;9.95;100.00
61039;BME280;46919;45.816;3.104;2023-05-11T05:13:12;97833.03;;;9.95;100.00
61039;BME280;46919;45.816;3.104;2023-05-11T05:15:40;97827.47;;;9.90;100.00
61039;BME280;46919;45.816;3.104;2023-05-11T05:18:06;97833.47;;;9.92;100.00
61039;BME280;46919;45.816;3.104;2023-05-11T05:20:31;97832.66;;;9.92;100.00
61039;BME280;46919;45.816;3.104;2023-05-11T05:22:57;97834.09;;;9.94;100.00
61039;BME280;46919;45.816;3.104;2023-05-11T05:25:23;97837.06;;;9.86;100.00
61039;BME280;46919;45.816;3.104;2023-05-11T05:27:48;97835.22;;;9.87;100.00
61039;BME280;46919;45.816;3.104;2023-05-11T05:30:13;97832.31;;;9.82;100.00
61039;BME280;46919;45.816;3.104;2023-05-11T05:32:39;97840.63;;;9.80;100.00
61039;BME280;46919;45.816;3.104;2023-05-11T05:35:05;97849.81;;;9.79;100.00
61039;BME280;46919;45.816;3.104;2023-05-11T05:37:30;97844.84;;;9.76;100.00
61039;BME280;46919;45.816;3.104;2023-05-11T05:39:55;97843.63;;;9.72;100.00
61039;BME280;46919;45.816;3.104;2023-05-11T05:42:21;97843.19;;;9.75;100.00
61039;BME280;46919;45.816;3.104;2023-05-11T05:44:46;97844.03;;;9.75;100.00
61039;BME280;46919;45.816;3.104;2023-05-11T05:47:12;97849.81;;;9.79;100.00
61039;BME280;46919;45.816;3.104;2023-05-11T05:49:37;97842.31;;;9.81;100.00
61039;BME280;46919;45.816;3.104;2023-05-11T05:52:03;97846.03;;;9.80;100.00
61039;BME280;46919;45.816;3.104;2023-05-11T05:54:28;97842.31;;;9.81;100.00
61039;BME280;46919;45.816;3.104;2023-05-11T05:56:53;97846.97;;;9.92;100.00
61039;BME280;46919;45.816;3.104;2023-05-11T05:59:19;97850.44;;;10.00;100.00
61039;BME280;46919;45.816;3.104;2023-05-11T06:01:48;97844.63;;;10.03;100.00
61039;BME280;46919;45.816;3.104;2023-05-11T06:04:13;97841.78;;;10.16;100.00
61039;BME280;46919;45.816;3.104;2023-05-11T06:06:39;97842.00;;;10.14;100.00
61039;BME280;46919;45.816;3.104;2023-05-11T06:09:04;97843.22;;;10.19;100.00
61039;BME280;46919;45.816;3.104;2023-05-11T06:11:30;97843.72;;;10.27;100.00
61039;BME280;46919;45.816;3.104;2023-05-11T06:13:56;97837.16;;;10.42;100.00
61039;BME280;46919;45.816;3.104;2023-05-11T06:16:21;97843.91;;;10.51;100.00
61039;BME280;46919;45.816;3.104;2023-05-11T06:18:47;97843.16;;;10.62;100.00
61039;BME280;46919;45.816;3.104;2023-05-11T06:21:12;97839.72;;;10.55;100.00
61039;BME280;46919;45.816;3.104;2023-05-11T06:23:37;97840.19;;;10.52;100.00
61039;BME280;46919;45.816;3.104;2023-05-11T06:26:03;97840.31;;;10.57;100.00
61039;BME280;46919;45.816;3.104;2023-05-11T06:28:28;97840.09;;;10.59;100.00
61039;BME280;46919;45.816;3.104;2023-05-11T06:30:57;97842.88;;;10.52;100.00
61039;BME280;46919;45.816;3.104;2023-05-11T06:33:24;97838.28;;;10.52;100.00
61039;BME280;46919;45.816;3.104;2023-05-11T06:35:49;97835.94;;;10.56;100.00
61039;BME280;46919;45.816;3.104;2023-05-11T06:38:14;97845.00;;;10.50;100.00
61039;BME280;46919;45.816;3.104;2023-05-11T06:40:40;97837.56;;;10.45;100.00
61039;BME280;46919;45.816;3.104;2023-05-11T06:43:05;97843.63;;;10.41;100.00
61039;BME280;46919;45.816;3.104;2023-05-11T06:45:31;97841.38;;;10.38;100.00
61039;BME280;46919;45.816;3.104;2023-05-11T06:47:56;97846.16;;;10.36;100.00
61039;BME280;46919;45.816;3.104;2023-05-11T06:50:21;97846.88;;;10.24;100.00
61039;BME280;46919;45.816;3.104;2023-05-11T06:52:47;97848.09;;;10.28;100.00
61039;BME280;46919;45.816;3.104;2023-05-11T06:55:12;97852.63;;;10.35;100.00
61039;BME280;46919;45.816;3.104;2023-05-11T06:57:38;97854.66;;;10.39;100.00
61039;BME280;46919;45.816;3.104;2023-05-11T07:00:05;97851.28;;;10.44;100.00
61039;BME280;46919;45.816;3.104;2023-05-11T07:02:30;97855.47;;;10.40;100.00
61039;BME280;46919;45.816;3.104;2023-05-11T07:04:56;97856.75;;;10.37;100.00
61039;BME280;46919;45.816;3.104;2023-05-11T07:07:22;97856.75;;;10.37;100.00
61039;BME280;46919;45.816;3.104;2023-05-11T07:09:48;97857.13;;;10.41;100.00
61039;BME280;46919;45.816;3.104;2023-05-11T07:12:13;97854.59;;;10.46;100.00
61039;BME280;46919;45.816;3.104;2023-05-11T07:14:39;97863.50;;;10.46;100.00
61039;BME280;46919;45.816;3.104;2023-05-11T07:17:04;97856.69;;;10.44;100.00
61039;BME280;46919;45.816;3.104;2023-05-11T07:19:30;97860.00;;;10.46;100.00
61039;BME280;46919;45.816;3.104;2023-05-11T07:21:56;97857.72;;;10.43;100.00
61039;BME280;46919;45.816;3.104;2023-05-11T07:24:22;97860.97;;;10.33;100.00
61039;BME280;46919;45.816;3.104;2023-05-11T07:26:47;97866.72;;;10.37;100.00
61039;BME280;46919;45.816;3.104;2023-05-11T07:29:14;97858.19;;;10.40;100.00
61039;BME280;46919;45.816;3.104;2023-05-11T07:31:40;97858.56;;;10.43;100.00
61039;BME280;46919;45.816;3.104;2023-05-11T07:34:05;97858.31;;;10.45;100.00
61039;BME280;46919;45.816;3.104;2023-05-11T07:36:30;97861.66;;;10.47;100.00
61039;BME280;46919;45.816;3.104;2023-05-11T07:38:56;97858.72;;;10.48;100.00
61039;BME280;46919;45.816;3.104;2023-05-11T07:41:23;97861.25;;;10.43;100.00
61039;BME280;46919;45.816;3.104;2023-05-11T07:43:52;97858.72;;;10.48;100.00
61039;BME280;46919;45.816;3.104;2023-05-11T07:46:17;97858.78;;;10.60;100.00
61039;BME280;46919;45.816;3.104;2023-05-11T07:48:42;97857.88;;;10.66;100.00
61039;BME280;46919;45.816;3.104;2023-05-11T07:51:08;97865.09;;;10.73;100.00
61039;BME280;46919;45.816;3.104;2023-05-11T07:53:34;97860.59;;;10.66;100.00
61039;BME280;46919;45.816;3.104;2023-05-11T07:56:00;97856.38;;;10.71;100.00
61039;BME280;46919;45.816;3.104;2023-05-11T07:58:25;97867.47;;;10.81;100.00
61039;BME280;46919;45.816;3.104;2023-05-11T08:00:51;97868.06;;;10.83;100.00
61039;BME280;46919;45.816;3.104;2023-05-11T08:03:16;97872.34;;;10.91;100.00
61039;BME280;46919;45.816;3.104;2023-05-11T08:05:42;97869.78;;;10.96;100.00
61039;BME280;46919;45.816;3.104;2023-05-11T08:08:07;97864.75;;;10.99;100.00
61039;BME280;46919;45.816;3.104;2023-05-11T08:10:34;97865.47;;;11.06;100.00
61039;BME280;46919;45.816;3.104;2023-05-11T08:13:00;97869.63;;;11.09;100.00
61039;BME280;46919;45.816;3.104;2023-05-11T08:15:25;97864.94;;;11.16;100.00
61039;BME280;46919;45.816;3.104;2023-05-11T08:17:51;97866.22;;;11.14;100.00
61039;BME280;46919;45.816;3.104;2023-05-11T08:20:16;97865.78;;;11.17;100.00
61039;BME280;46919;45.816;3.104;2023-05-11T08:22:43;97870.13;;;11.18;100.00
61039;BME280;46919;45.816;3.104;2023-05-11T08:25:08;97864.13;;;11.16;100.00
61039;BME280;46919;45.816;3.104;2023-05-11T08:27:34;97864.00;;;11.11;100.00
61039;BME280;46919;45.816;3.104;2023-05-11T08:29:59;97858.44;;;11.05;100.00
61039;BME280;46919;45.816;3.104;2023-05-11T08:32:25;97864.22;;;11.09;100.00
61039;BME280;46919;45.816;3.104;2023-05-11T08:34:51;97856.91;;;11.10;100.00
61039;BME280;46919;45.816;3.104;2023-05-11T08:37:17;97857.38;;;11.06;100.00
61039;BME280;46919;45.816;3.104;2023-05-11T08:39:42;97861.97;;;11.06;100.00
61039;BME280;46919;45.816;3.104;2023-05-11T08:42:09;97863.41;;;11.09;100.00
61039;BME280;46919;45.816;3.104;2023-05-11T08:44:34;97862.00;;;11.18;100.00
61039;BME280;46919;45.816;3.104;2023-05-11T08:47:03;97859.00;;;11.26;100.00
61039;BME280;46919;45.816;3.104;2023-05-11T08:49:29;97859.84;;;11.38;100.00
61039;BME280;46919;45.816;3.104;2023-05-11T08:51:55;97862.94;;;11.42;100.00
61039;BME280;46919;45.816;3.104;2023-05-11T08:54:21;97863.28;;;11.46;100.00
61039;BME280;46919;45.816;3.104;2023-05-11T08:56:46;97861.63;;;11.45;100.00
61039;BME280;46919;45.816;3.104;2023-05-11T08:59:12;97864.94;;;11.47;100.00
61039;BME280;46919;45.816;3.104;2023-05-11T09:01:40;97861.50;;;11.51;100.00
61039;BME280;46919;45.816;3.104;2023-05-11T09:04:07;97856.38;;;11.62;100.00
61039;BME280;46919;45.816;3.104;2023-05-11T09:06:33;97865.66;;;11.54;100.00
61039;BME280;46919;45.816;3.104;2023-05-11T09:08:59;97863.97;;;11.41;100.00
61039;BME280;46919;45.816;3.104;2023-05-11T09:11:26;97862.13;;;11.65;100.00
61039;BME280;46919;45.816;3.104;2023-05-11T09:13:52;97861.34;;;11.76;100.00
61039;BME280;46919;45.816;3.104;2023-05-11T09:16:17;97864.03;;;11.65;100.00
61039;BME280;46919;45.816;3.104;2023-05-11T09:18:50;97860.59;;;11.57;100.00
61039;BME280;46919;45.816;3.104;2023-05-11T09:21:16;97850.38;;;11.71;100.00
61039;BME280;46919;45.816;3.104;2023-05-11T09:23:42;97860.47;;;11.94;100.00
61039;BME280;46919;45.816;3.104;2023-05-11T09:26:19;97866.22;;;11.98;100.00
61039;BME280;46919;45.816;3.104;2023-05-11T09:28:53;97857.84;;;12.11;100.00
61039;BME280;46919;45.816;3.104;2023-05-11T09:31:43;97856.78;;;12.24;100.00
61039;BME280;46919;45.816;3.104;2023-05-11T09:36:35;97854.09;;;12.24;100.00
61039;BME280;46919;45.816;3.104;2023-05-11T09:39:02;97854.94;;;12.25;100.00
61039;BME280;46919;45.816;3.104;2023-05-11T09:41:28;97855.38;;;12.45;100.00
61039;BME280;46919;45.816;3.104;2023-05-11T09:44:12;97849.13;;;12.57;100.00
61039;BME280;46919;45.816;3.104;2023-05-11T09:46:40;97853.81;;;12.61;100.00
61039;BME280;46919;45.816;3.104;2023-05-11T09:49:06;97849.94;;;12.69;100.00
61039;BME280;46919;45.816;3.104;2023-05-11T09:51:34;97850.41;;;12.66;100.00
61039;BME280;46919;45.816;3.104;2023-05-11T09:54:02;97850.03;;;12.62;100.00
61039;BME280;46919;45.816;3.104;2023-05-11T09:59:09;97850.19;;;12.44;100.00
61039;BME280;46919;45.816;3.104;2023-05-11T10:01:37;97847.38;;;12.27;100.00
61039;BME280;46919;45.816;3.104;2023-05-11T10:04:03;97836.53;;;12.27;100.00
61039;BME280;46919;45.816;3.104;2023-05-11T10:06:49;97837.03;;;12.36;100.00
61039;BME280;46919;45.816;3.104;2023-05-11T10:09:18;97836.88;;;12.42;100.00
61039;BME280;46919;45.816;3.104;2023-05-11T10:11:48;97837.13;;;12.41;100.00
61039;BME280;46919;45.816;3.104;2023-05-11T10:14:15;97827.09;;;12.41;100.00
61039;BME280;46919;45.816;3.104;2023-05-11T10:16:42;97829.91;;;12.46;100.00
61039;BME280;46919;45.816;3.104;2023-05-11T10:19:07;97835.94;;;12.37;100.00
61039;BME280;46919;45.816;3.104;2023-05-11T10:21:34;97832.06;;;12.21;100.00
61039;BME280;46919;45.816;3.104;2023-05-11T10:24:02;97834.19;;;12.19;100.00
61039;BME280;46919;45.816;3.104;2023-05-11T10:26:29;97825.59;;;12.22;100.00
61039;BME280;46919;45.816;3.104;2023-05-11T10:28:55;97828.66;;;12.25;100.00
61039;BME280;46919;45.816;3.104;2023-05-11T10:31:21;97822.75;;;12.28;100.00
61039;BME280;46919;45.816;3.104;2023-05-11T10:33:52;97825.47;;;12.40;100.00
61039;BME280;46919;45.816;3.104;2023-05-11T10:36:18;97827.81;;;12.48;100.00
61039;BME280;46919;45.816;3.104;2023-05-11T10:38:43;97821.78;;;12.46;100.00
61039;BME280;46919;45.816;3.104;2023-05-11T10:44:36;97835.56;;;12.45;100.00
61039;BME280;46919;45.816;3.104;2023-05-11T10:50:04;97836.53;;;11.91;100.00
61039;BME280;46919;45.816;3.104;2023-05-11T10:58:18;97822.97;;;11.68;100.00
61039;BME280;46919;45.816;3.104;2023-05-11T11:03:19;97822.38;;;11.77;100.00
61039;BME280;46919;45.816;3.104;2023-05-11T11:05:44;97820.41;;;11.96;100.00
61039;BME280;46919;45.816;3.104;2023-05-11T11:08:12;97817.13;;;12.18;100.00
61039;BME280;46919;45.816;3.104;2023-05-11T11:10:40;97813.78;;;12.40;100.00
61039;BME280;46919;45.816;3.104;2023-05-11T11:13:09;97810.31;;;12.68;100.00
61039;BME280;46919;45.816;3.104;2023-05-11T11:18:26;97803.50;;;12.94;100.00
61039;BME280;46919;45.816;3.104;2023-05-11T11:20:54;97797.63;;;13.14;99.12
61039;BME280;46919;45.816;3.104;2023-05-11T11:26:04;97795.16;;;13.58;98.41
61039;BME280;46919;45.816;3.104;2023-05-11T11:31:30;97783.06;;;13.49;97.59
61039;BME280;46919;45.816;3.104;2023-05-11T11:33:58;97779.44;;;13.61;97.72
61039;BME280;46919;45.816;3.104;2023-05-11T11:39:51;97785.34;;;14.08;95.65
61039;BME280;46919;45.816;3.104;2023-05-11T11:45:26;97766.88;;;14.10;90.45
61039;BME280;46919;45.816;3.104;2023-05-11T11:48:10;97775.00;;;14.27;88.35
61039;BME280;46919;45.816;3.104;2023-05-11T11:50:38;97770.94;;;14.52;88.26
61039;BME280;46919;45.816;3.104;2023-05-11T11:53:04;97764.72;;;14.74;88.04
61039;BME280;46919;45.816;3.104;2023-05-11T11:55:50;97758.13;;;14.70;86.04
61039;BME280;46919;45.816;3.104;2023-05-11T12:01:16;97754.38;;;15.30;82.14
61039;BME280;46919;45.816;3.104;2023-05-11T12:03:43;97743.03;;;15.38;nan
61039;BME280;46919;45.816;3.104;2023-05-11T12:06:10;97734.38;;;15.47;81.41
61039;BME280;46919;45.816;3.104;2023-05-11T12:08:37;97734.72;;;15.93;82.47
61039;BME280;46919;45.816;3.104;2023-05-11T12:11:04;97728.75;;;16.01;77.61
61039;BME280;46919;45.816;3.104;2023-05-11T12:13:31;97721.66;;;16.00;77.58
61039;BME280;46919;45.816;3.104;2023-05-11T12:18:38;97721.31;;;15.49;78.24
61039;BME280;46919;45.816;3.104;2023-05-11T12:21:03;97724.22;;;15.37;81.16
61039;BME280;46919;45.816;3.104;2023-05-11T12:23:29;97721.78;;;15.40;82.51
61039;BME280;46919;45.816;3.104;2023-05-11T12:26:04;97712.91;;;15.18;84.36
61039;BME280;46919;45.816;3.104;2023-05-11T12:28:33;97715.28;;;15.14;84.26
61039;BME280;46919;45.816;3.104;2023-05-11T12:30:59;97710.50;;;15.27;84.06
61039;BME280;46919;45.816;3.104;2023-05-11T12:33:24;97717.94;;;15.36;84.35
61039;BME280;46919;45.816;3.104;2023-05-11T12:35:59;97711.22;;;15.49;84.29
61039;BME280;46919;45.816;3.104;2023-05-11T12:38:24;97707.72;;;15.54;80.90
61039;BME280;46919;45.816;3.104;2023-05-11T12:40:51;97700.19;;;15.66;82.10
61039;BME280;46919;45.816;3.104;2023-05-11T12:43:21;97700.38;;;15.54;82.58
61039;BME280;46919;45.816;3.104;2023-05-11T12:45:47;97705.50;;;15.51;80.75
61039;BME280;46919;45.816;3.104;2023-05-11T12:48:13;97705.94;;;15.32;82.76
61039;BME280;46919;45.816;3.104;2023-05-11T12:50:44;97697.66;;;14.90;82.04
61039;BME280;46919;45.816;3.104;2023-05-11T12:53:20;97700.19;;;14.69;85.07
61039;BME280;46919;45.816;3.104;2023-05-11T12:55:59;97698.03;;;14.49;84.07
61039;BME280;46919;45.816;3.104;2023-05-11T12:58:24;97703.03;;;14.35;83.45
61039;BME280;46919;45.816;3.104;2023-05-11T13:00:55;97720.13;;;14.08;82.95
61039;BME280;46919;45.816;3.104;2023-05-11T13:03:22;97729.97;;;13.25;86.08
61039;BME280;46919;45.816;3.104;2023-05-11T13:05:48;97744.28;;;12.33;93.57
61039;BME280;46919;45.816;3.104;2023-05-11T13:08:13;97747.03;;;11.51;100.00
61039;BME280;46919;45.816;3.104;2023-05-11T13:10:40;97741.63;;;10.85;100.00
61039;BME280;46919;45.816;3.104;2023-05-11T13:13:06;97740.31;;;10.57;100.00
61039;BME280;46919;45.816;3.104;2023-05-11T13:15:31;97725.94;;;10.45;100.00
61039;BME280;46919;45.816;3.104;2023-05-11T13:17:59;97720.06;;;10.48;100.00
61039;BME280;46919;45.816;3.104;2023-05-11T13:20:28;97725.72;;;10.46;100.00
61039;BME280;46919;45.816;3.104;2023-05-11T13:23:05;97719.84;;;10.49;100.00
61039;BME280;46919;45.816;3.104;2023-05-11T13:25:32;97713.63;;;10.49;100.00
61039;BME280;46919;45.816;3.104;2023-05-11T13:27:58;97715.09;;;10.63;100.00
61039;BME280;46919;45.816;3.104;2023-05-11T13:30:23;97709.13;;;10.73;100.00
61039;BME280;46919;45.816;3.104;2023-05-11T13:32:49;97702.44;;;10.76;100.00
61039;BME280;46919;45.816;3.104;2023-05-11T13:35:14;97703.78;;;10.85;100.00
61039;BME280;46919;45.816;3.104;2023-05-11T13:37:40;97700.72;;;10.93;100.00
61039;BME280;46919;45.816;3.104;2023-05-11T13:40:06;97693.78;;;10.97;100.00
61039;BME280;46919;45.816;3.104;2023-05-11T13:42:35;97692.88;;;11.03;100.00
61039;BME280;46919;45.816;3.104;2023-05-11T13:45:01;97690.78;;;11.05;100.00
61039;BME280;46919;45.816;3.104;2023-05-11T13:47:26;97700.16;;;11.15;100.00
61039;BME280;46919;45.816;3.104;2023-05-11T13:49:52;97693.13;;;11.14;100.00